Time;durP1;ratioP1;P1;durP2;ratioP2;P2;SDS_P1;SDS_P2;PMS_P1;PMS_P2;Temp;Humidity;BMP_temperature;BMP_pressure;BME280_temperature;BME280_humidity;BME280_pressure;Samples;Min_cycle;Max_cycle;Signal;HPM_P1;HPM_P2
2022/07/18 00:01:47;;;;;;;3.10;2.80;;;17.60;99.90;;;;;;4980716;28;20306;-91
2022/07/18 00:04:13;;;;;;;3.07;2.73;;;17.60;99.90;;;;;;4996765;28;20188;-91
2022/07/18 00:06:39;;;;;;;5.40;3.30;;;17.60;99.90;;;;;;4996961;28;20261;-91
2022/07/18 00:09:05;;;;;;;4.23;3.07;;;17.50;99.90;;;;;;4996724;28;20217;-91
2022/07/18 00:11:31;;;;;;;3.20;2.90;;;17.40;99.90;;;;;;4980950;28;20197;-91
2022/07/18 00:13:57;;;;;;;4.63;2.70;;;17.30;99.90;;;;;;4980513;28;20270;-91
2022/07/18 00:16:24;;;;;;;4.60;2.80;;;17.40;99.90;;;;;;4996799;28;20175;-92
2022/07/18 00:18:50;;;;;;;3.83;3.10;;;17.40;99.90;;;;;;4996578;28;20230;-91
2022/07/18 00:21:17;;;;;;;3.43;2.60;;;17.40;99.90;;;;;;4980391;28;20204;-91
2022/07/18 00:23:43;;;;;;;3.00;2.80;;;17.40;99.90;;;;;;4996335;28;20187;-90
2022/07/18 00:26:09;;;;;;;3.00;2.70;;;17.30;99.90;;;;;;4996123;28;20221;-91
2022/07/18 00:28:34;;;;;;;3.10;2.27;;;17.20;99.90;;;;;;4980603;28;20189;-91
2022/07/18 00:31:00;;;;;;;2.60;2.40;;;17.20;99.90;;;;;;4980259;28;20253;-91
2022/07/18 00:33:26;;;;;;;2.60;2.40;;;17.20;99.90;;;;;;4996784;28;20255;-91
2022/07/18 00:35:52;;;;;;;4.07;2.57;;;17.20;99.90;;;;;;4996274;28;20182;-91
2022/07/18 00:38:18;;;;;;;5.07;2.97;;;17.10;99.90;;;;;;4977673;28;20183;-91
2022/07/18 00:40:45;;;;;;;3.30;2.67;;;17.00;99.90;;;;;;4994491;28;20214;-91
2022/07/18 00:43:14;;;;;;;3.27;2.57;;;17.00;99.90;;;;;;4995179;28;20175;-91
2022/07/18 00:45:45;;;;;;;2.93;2.63;;;16.90;99.90;;;;;;4995355;28;20180;-91
2022/07/18 00:48:11;;;;;;;3.83;2.53;;;16.90;99.90;;;;;;4984599;28;20187;-91
2022/07/18 00:50:37;;;;;;;4.63;3.10;;;16.90;99.90;;;;;;5011367;28;20223;-91
2022/07/18 00:53:05;;;;;;;5.20;2.73;;;16.80;99.90;;;;;;5005118;28;20190;-91
2022/07/18 00:55:32;;;;;;;2.97;2.70;;;16.70;99.90;;;;;;4983220;28;20176;-92
2022/07/18 00:57:58;;;;;;;4.87;2.60;;;16.70;99.90;;;;;;4981539;28;20186;-91
2022/07/18 01:03:09;;;;;;;5.17;2.57;;;16.60;99.90;;;;;;4995695;28;20245;-91
2022/07/18 01:05:36;;;;;;;3.93;2.37;;;16.50;99.90;;;;;;4979568;28;20194;-91
2022/07/18 01:08:02;;;;;;;2.90;2.60;;;16.50;99.90;;;;;;4979670;28;20290;-91
2022/07/18 01:10:28;;;;;;;3.80;2.10;;;16.40;99.90;;;;;;4979855;28;20187;-91
2022/07/18 01:12:54;;;;;;;3.30;2.47;;;16.40;99.90;;;;;;4979726;28;20171;-91
2022/07/18 01:15:20;;;;;;;3.63;2.50;;;16.40;99.90;;;;;;4995758;28;20190;-90
2022/07/18 01:17:46;;;;;;;3.03;2.60;;;16.50;99.90;;;;;;4995370;28;20183;-90
2022/07/18 01:20:12;;;;;;;5.43;2.60;;;16.50;99.90;;;;;;4979934;28;20179;-91
2022/07/18 01:22:41;;;;;;;2.97;2.63;;;16.50;99.90;;;;;;4978867;28;20203;-91
2022/07/18 01:25:10;;;;;;;3.30;3.00;;;16.40;99.90;;;;;;4995767;28;20183;-91
2022/07/18 01:27:37;;;;;;;2.63;2.43;;;16.40;99.90;;;;;;4995595;28;20203;-91
2022/07/18 01:30:04;;;;;;;4.33;2.60;;;16.40;99.90;;;;;;4979176;28;20278;-91
2022/07/18 01:32:30;;;;;;;3.73;2.70;;;16.20;99.90;;;;;;4978464;28;20731;-90
2022/07/18 01:34:56;;;;;;;3.87;2.60;;;16.20;99.90;;;;;;4995805;28;20218;-91
2022/07/18 01:37:22;;;;;;;3.03;2.47;;;16.10;99.90;;;;;;4995541;28;20200;-91
2022/07/18 01:39:48;;;;;;;3.10;2.30;;;16.10;99.90;;;;;;4995661;28;20191;-91
2022/07/18 01:42:15;;;;;;;4.30;2.60;;;16.10;99.90;;;;;;4995430;28;20211;-91
2022/07/18 01:44:42;;;;;;;4.10;2.70;;;16.10;99.90;;;;;;4978860;28;20183;-90
2022/07/18 01:47:10;;;;;;;4.33;2.90;;;16.10;99.90;;;;;;4980777;28;20192;-91
2022/07/18 01:49:37;;;;;;;2.90;2.60;;;16.10;99.90;;;;;;4996066;28;20274;-90
2022/07/18 01:52:04;;;;;;;4.40;2.60;;;16.00;99.90;;;;;;4996153;28;20254;-90
2022/07/18 01:54:31;;;;;;;4.63;3.00;;;16.00;99.90;;;;;;4978676;28;20179;-91
2022/07/18 01:56:59;;;;;;;3.03;2.73;;;15.90;99.90;;;;;;4978798;28;20189;-91
2022/07/18 01:59:26;;;;;;;3.63;2.60;;;15.90;99.90;;;;;;4994970;28;20207;-91
2022/07/18 02:01:52;;;;;;;3.83;2.73;;;15.80;99.90;;;;;;4994852;28;20250;-91
2022/07/18 02:04:18;;;;;;;2.60;2.40;;;15.80;99.90;;;;;;4978746;28;20207;-91
2022/07/18 02:06:44;;;;;;;4.17;3.00;;;15.80;99.90;;;;;;4978253;28;20202;-91
2022/07/18 02:09:11;;;;;;;2.90;2.70;;;15.80;99.90;;;;;;4994606;28;20183;-91
2022/07/18 02:11:38;;;;;;;2.80;2.60;;;15.80;99.90;;;;;;4978697;28;20233;-91
2022/07/18 02:14:05;;;;;;;6.33;2.90;;;15.80;99.90;;;;;;4977581;28;20183;-91
2022/07/18 02:16:31;;;;;;;3.90;2.87;;;15.60;99.90;;;;;;4978389;28;20183;-91
2022/07/18 02:18:57;;;;;;;3.20;2.87;;;15.60;99.90;;;;;;4978531;28;20188;-90
2022/07/18 02:21:23;;;;;;;3.03;2.77;;;15.50;99.90;;;;;;4978619;28;20203;-91
2022/07/18 02:23:50;;;;;;;4.57;2.90;;;15.50;99.90;;;;;;4994629;28;20187;-90
2022/07/18 02:26:17;;;;;;;2.80;2.60;;;15.40;99.90;;;;;;4994416;28;20304;-91
2022/07/18 02:28:43;;;;;;;3.07;2.80;;;15.40;99.90;;;;;;4994520;28;20183;-91
2022/07/18 02:31:09;;;;;;;3.00;2.70;;;15.50;99.90;;;;;;4978110;28;20198;-91
2022/07/18 02:33:35;;;;;;;4.20;3.10;;;15.50;99.90;;;;;;4978402;28;20187;-91
2022/07/18 02:36:01;;;;;;;3.07;2.77;;;15.60;99.90;;;;;;4978095;28;20176;-91
2022/07/18 02:38:27;;;;;;;3.23;2.67;;;15.60;99.90;;;;;;4994587;28;20189;-92
2022/07/18 02:40:53;;;;;;;3.97;3.10;;;15.60;99.90;;;;;;4994178;28;20223;-91
2022/07/18 02:43:19;;;;;;;3.07;2.80;;;15.60;99.90;;;;;;4978230;28;20245;-90
2022/07/18 02:45:45;;;;;;;3.20;2.90;;;15.70;99.90;;;;;;4978762;28;20236;-91
2022/07/18 02:48:10;;;;;;;5.10;3.07;;;15.70;99.90;;;;;;4994875;28;20305;-90
2022/07/18 02:50:36;;;;;;;3.10;2.90;;;15.70;99.90;;;;;;4994958;28;20232;-91
2022/07/18 02:53:02;;;;;;;4.00;2.93;;;15.60;99.90;;;;;;4979168;28;20182;-90
2022/07/18 02:55:28;;;;;;;4.60;2.90;;;15.50;99.90;;;;;;4978962;28;20182;-91
2022/07/18 02:57:54;;;;;;;3.07;2.80;;;15.40;99.90;;;;;;4995497;28;20249;-91
2022/07/18 03:00:20;;;;;;;3.70;3.00;;;15.40;99.90;;;;;;4995262;28;20187;-90
2022/07/18 03:02:46;;;;;;;3.33;2.77;;;15.30;99.90;;;;;;4996387;28;20183;-91
2022/07/18 03:05:12;;;;;;;5.60;2.90;;;15.30;99.90;;;;;;4993752;28;20263;-90
2022/07/18 03:07:38;;;;;;;2.83;2.63;;;15.20;99.90;;;;;;4977921;28;20227;-91
2022/07/18 03:10:05;;;;;;;3.60;2.43;;;15.10;99.90;;;;;;4993846;28;20175;-91
2022/07/18 03:12:32;;;;;;;4.23;2.73;;;15.10;99.90;;;;;;4978521;28;20198;-91
2022/07/18 03:14:58;;;;;;;2.70;2.50;;;15.10;99.90;;;;;;4977596;28;20659;-90
2022/07/18 03:17:24;;;;;;;3.97;2.47;;;15.10;99.90;;;;;;4994667;28;20184;-91
2022/07/18 03:19:49;;;;;;;3.23;2.80;;;15.00;99.90;;;;;;4994007;28;20179;-90
2022/07/18 03:22:15;;;;;;;5.00;2.60;;;15.00;99.90;;;;;;4977788;28;20210;-90
2022/07/18 03:24:41;;;;;;;3.17;2.87;;;14.90;99.90;;;;;;4976853;28;20214;-90
2022/07/18 03:27:07;;;;;;;4.90;2.67;;;14.80;99.90;;;;;;4993555;28;20297;-90
2022/07/18 03:29:33;;;;;;;4.23;2.87;;;14.80;99.90;;;;;;4993871;28;20178;-90
2022/07/18 03:31:59;;;;;;;5.47;3.10;;;14.70;99.90;;;;;;4977509;28;20207;-91
2022/07/18 03:34:25;;;;;;;3.87;2.90;;;14.60;99.90;;;;;;4993851;28;20191;-91
2022/07/18 03:36:51;;;;;;;4.43;3.10;;;14.50;99.90;;;;;;4993636;28;20221;-90
2022/07/18 03:39:17;;;;;;;5.17;3.10;;;14.50;99.90;;;;;;4993701;28;20216;-91
2022/07/18 03:41:43;;;;;;;3.10;2.80;;;14.50;99.90;;;;;;4993058;28;20227;-91
2022/07/18 03:44:09;;;;;;;4.53;3.10;;;14.40;99.90;;;;;;4977663;28;20200;-91
2022/07/18 03:46:35;;;;;;;5.60;3.03;;;14.40;99.90;;;;;;4977760;28;20202;-91
2022/07/18 03:49:00;;;;;;;3.50;2.80;;;14.40;99.90;;;;;;4994102;28;20197;-91
2022/07/18 03:51:26;;;;;;;3.43;3.13;;;14.40;99.90;;;;;;4993678;28;20206;-90
2022/07/18 03:53:53;;;;;;;3.77;3.10;;;14.40;99.90;;;;;;4977539;28;20179;-90
2022/07/18 03:56:19;;;;;;;4.90;3.47;;;14.40;99.90;;;;;;4976946;28;20190;-91
2022/07/18 03:58:45;;;;;;;3.37;3.03;;;14.40;99.90;;;;;;4977745;28;20191;-91
2022/07/18 04:01:11;;;;;;;4.80;3.17;;;14.30;99.90;;;;;;4976565;28;20205;-90
2022/07/18 04:03:37;;;;;;;3.67;2.80;;;14.40;99.90;;;;;;4993381;28;20183;-90
2022/07/18 04:06:03;;;;;;;3.20;2.90;;;14.40;99.90;;;;;;4977086;28;20186;-89
2022/07/18 04:08:29;;;;;;;4.80;2.97;;;14.40;99.90;;;;;;4994371;28;20321;-91
2022/07/18 04:10:55;;;;;;;3.50;3.10;;;14.50;99.90;;;;;;4977483;28;20202;-89
2022/07/18 04:13:33;;;;;;;4.27;2.93;;;14.60;99.90;;;;;;4979432;28;20200;-89
2022/07/18 04:16:07;;;;;;;3.30;3.03;;;14.60;99.90;;;;;;4996436;28;20185;-89
2022/07/18 04:18:38;;;;;;;3.10;2.77;;;14.70;99.90;;;;;;4982026;28;20194;-89
2022/07/18 04:21:06;;;;;;;5.27;3.17;;;14.60;99.90;;;;;;4999072;28;20207;-89
2022/07/18 04:23:34;;;;;;;3.63;3.20;;;14.60;99.90;;;;;;5015586;28;20198;-89
2022/07/18 04:26:26;;;;;;;4.60;2.80;;;14.70;99.90;;;;;;4999667;28;20222;-89
2022/07/18 04:28:55;;;;;;;3.30;3.00;;;14.70;99.90;;;;;;4980372;28;20630;-89
2022/07/18 04:31:34;;;;;;;3.20;2.90;;;14.70;99.90;;;;;;4995237;28;20235;-89
2022/07/18 04:34:00;;;;;;;4.50;3.20;;;14.70;99.90;;;;;;4995774;28;20168;-91
2022/07/18 04:36:25;;;;;;;3.63;2.93;;;14.70;99.90;;;;;;4996763;28;20322;-91
2022/07/18 04:38:51;;;;;;;3.97;3.07;;;14.80;99.90;;;;;;4999186;28;20190;-91
2022/07/18 04:41:22;;;;;;;3.50;3.20;;;14.80;99.90;;;;;;4982850;28;20217;-91
2022/07/18 04:43:50;;;;;;;4.10;3.03;;;14.80;99.90;;;;;;4999036;28;20175;-91
2022/07/18 04:46:16;;;;;;;3.23;3.00;;;14.90;99.90;;;;;;4998878;28;20203;-91
2022/07/18 04:48:41;;;;;;;3.77;3.10;;;14.90;99.90;;;;;;4987665;28;20253;-91
2022/07/18 04:51:08;;;;;;;4.30;3.60;;;14.90;99.90;;;;;;4973733;28;20222;-91
2022/07/18 04:53:34;;;;;;;3.23;3.03;;;15.00;99.90;;;;;;4996787;28;20206;-91
2022/07/18 04:56:00;;;;;;;3.27;2.97;;;15.10;99.90;;;;;;4982970;28;20179;-91
2022/07/18 04:58:26;;;;;;;3.90;3.30;;;15.10;99.90;;;;;;4997144;28;20210;-91
2022/07/18 05:00:53;;;;;;;3.87;3.17;;;15.10;99.90;;;;;;4995849;28;20207;-91
2022/07/18 05:03:18;;;;;;;4.93;3.13;;;15.10;99.90;;;;;;4995964;28;20186;-91
2022/07/18 05:05:44;;;;;;;4.50;3.23;;;15.00;99.90;;;;;;4979642;28;20189;-91
2022/07/18 05:08:12;;;;;;;4.53;3.03;;;15.00;99.90;;;;;;4996415;28;20218;-91
2022/07/18 05:10:38;;;;;;;4.53;3.17;;;15.00;99.90;;;;;;4998361;28;20213;-91
2022/07/18 05:13:03;;;;;;;4.73;3.30;;;15.10;99.90;;;;;;4982373;28;20175;-91
2022/07/18 05:15:29;;;;;;;9.43;3.83;;;15.10;99.90;;;;;;4998055;28;20182;-91
2022/07/18 05:17:55;;;;;;;4.63;3.30;;;15.10;99.90;;;;;;4995200;28;20245;-91
2022/07/18 05:20:23;;;;;;;4.60;3.30;;;15.20;99.90;;;;;;4979046;28;20186;-91
2022/07/18 05:22:51;;;;;;;6.03;3.70;;;15.30;99.90;;;;;;4978208;28;20194;-91
2022/07/18 05:25:17;;;;;;;5.00;3.33;;;15.50;99.90;;;;;;4978706;28;20186;-91
2022/07/18 05:27:43;;;;;;;4.40;3.23;;;15.60;99.90;;;;;;4978143;28;20207;-92
2022/07/18 05:30:12;;;;;;;4.93;3.60;;;15.70;99.90;;;;;;4979539;28;20280;-91
2022/07/18 05:32:39;;;;;;;5.80;3.47;;;15.80;99.90;;;;;;4995706;28;20202;-91
2022/07/18 05:35:07;;;;;;;3.40;3.10;;;15.90;99.90;;;;;;4995854;28;20183;-90
2022/07/18 05:37:35;;;;;;;3.43;3.03;;;16.10;99.90;;;;;;4995031;28;20286;-91
2022/07/18 05:40:02;;;;;;;3.67;3.37;;;16.20;99.90;;;;;;4979453;28;20194;-91
2022/07/18 05:42:28;;;;;;;3.50;3.17;;;16.40;99.90;;;;;;4979148;28;20679;-89
2022/07/18 05:44:55;;;;;;;3.80;3.10;;;16.50;99.90;;;;;;4978893;28;20203;-91
2022/07/18 05:47:21;;;;;;;4.47;3.17;;;16.60;99.90;;;;;;4978365;28;20230;-91
2022/07/18 05:49:47;;;;;;;5.73;3.77;;;16.70;99.90;;;;;;4994850;28;20229;-91
2022/07/18 05:52:13;;;;;;;4.80;3.30;;;16.80;99.90;;;;;;4978570;28;20259;-91
2022/07/18 05:54:39;;;;;;;3.23;3.03;;;16.90;99.90;;;;;;4978654;28;20211;-91
2022/07/18 05:57:05;;;;;;;3.77;3.20;;;17.10;99.90;;;;;;4980106;28;20184;-91
2022/07/18 05:59:31;;;;;;;5.00;3.93;;;17.30;99.90;;;;;;4975428;28;20703;-91
2022/07/18 06:01:57;;;;;;;3.80;3.43;;;17.40;99.90;;;;;;4978753;28;20204;-91
2022/07/18 06:04:23;;;;;;;3.97;3.27;;;17.50;99.90;;;;;;4978768;28;20181;-91
2022/07/18 06:06:50;;;;;;;3.90;3.60;;;17.60;99.90;;;;;;4978684;28;20203;-91
2022/07/18 06:09:17;;;;;;;4.00;3.67;;;17.70;99.90;;;;;;4984102;28;20187;-90
2022/07/18 06:11:43;;;;;;;6.43;3.80;;;17.90;99.90;;;;;;4999489;28;20205;-95
2022/07/18 06:14:10;;;;;;;4.30;3.80;;;18.00;99.90;;;;;;4995586;28;20187;-89
2022/07/18 06:16:36;;;;;;;4.67;3.80;;;18.20;99.90;;;;;;4994977;28;20265;-91
2022/07/18 06:19:03;;;;;;;5.90;4.23;;;18.40;99.90;;;;;;4994400;28;20179;-91
2022/07/18 06:21:30;;;;;;;4.82;3.53;;;18.60;99.90;;;;;;4997306;28;20199;-91
2022/07/18 06:23:56;;;;;;;4.50;3.47;;;18.60;99.90;;;;;;4996678;28;20182;-91
2022/07/18 06:26:22;;;;;;;3.65;3.05;;;18.70;99.90;;;;;;4978193;28;20217;-91
2022/07/18 06:28:48;;;;;;;3.85;3.45;;;18.80;99.90;;;;;;4997056;28;20187;-92
2022/07/18 06:31:17;;;;;;;3.55;3.25;;;18.90;99.90;;;;;;4980199;28;20223;-91
2022/07/18 06:33:44;;;;;;;5.28;3.72;;;19.10;99.90;;;;;;4980464;28;20201;-91
2022/07/18 06:36:11;;;;;;;6.38;3.70;;;19.30;99.90;;;;;;4980371;28;20194;-91
2022/07/18 06:38:38;;;;;;;9.00;3.70;;;19.40;99.90;;;;;;4996857;28;20186;-92
2022/07/18 06:41:05;;;;;;;5.18;3.70;;;19.50;99.90;;;;;;4996576;28;20203;-91
2022/07/18 06:43:31;;;;;;;7.95;3.97;;;19.60;99.90;;;;;;4996633;28;20176;-91
2022/07/18 06:45:57;;;;;;;3.88;3.58;;;19.60;99.90;;;;;;4995855;28;20186;-91
2022/07/18 06:48:23;;;;;;;5.15;3.20;;;19.70;99.90;;;;;;4979434;28;20218;-91
2022/07/18 06:50:49;;;;;;;6.53;3.45;;;19.80;99.90;;;;;;4996346;28;20214;-91
2022/07/18 06:53:16;;;;;;;4.45;3.63;;;19.90;99.90;;;;;;4996157;28;20180;-91
2022/07/18 06:55:42;;;;;;;4.00;3.22;;;20.20;99.90;;;;;;4996054;28;20183;-91
2022/07/18 06:58:09;;;;;;;4.15;3.10;;;20.40;99.90;;;;;;4995995;28;20176;-91
2022/07/18 07:00:35;;;;;;;3.95;3.17;;;20.60;99.90;;;;;;4993971;28;20179;-93
2022/07/18 07:03:02;;;;;;;3.78;3.08;;;20.90;99.90;;;;;;4978476;28;20187;-92
2022/07/18 07:05:38;;;;;;;3.35;2.85;;;21.10;99.90;;;;;;4978777;28;20223;-93
2022/07/18 07:08:19;;;;;;;4.05;3.10;;;21.20;99.90;;;;;;4979326;28;20208;-92
2022/07/18 07:10:58;;;;;;;3.15;2.78;;;21.30;99.60;;;;;;4994856;28;20203;-92
2022/07/18 07:13:33;;;;;;;6.57;3.40;;;21.40;99.70;;;;;;4977579;28;20168;-91
2022/07/18 07:16:00;;;;;;;3.28;2.97;;;21.60;99.90;;;;;;4994412;28;20186;-93
2022/07/18 07:18:26;;;;;;;4.43;2.97;;;21.70;98.90;;;;;;4995760;28;20266;-92
2022/07/18 07:21:05;;;;;;;4.15;3.10;;;21.90;98.50;;;;;;4994128;28;20203;-92
2022/07/18 07:23:44;;;;;;;3.90;2.97;;;22.10;98.50;;;;;;4962081;28;20258;-92
2022/07/18 07:26:11;;;;;;;3.00;2.70;;;22.20;97.50;;;;;;4977661;28;20175;-92
2022/07/18 07:28:40;;;;;;;5.60;3.08;;;22.40;97.80;;;;;;4979396;28;20179;-92
2022/07/18 07:31:09;;;;;;;3.47;3.00;;;22.50;98.60;;;;;;4977994;28;20202;-92
2022/07/18 07:33:36;;;;;;;7.18;3.30;;;22.70;98.60;;;;;;4993165;28;20171;-92
2022/07/18 07:36:03;;;;;;;4.00;2.90;;;22.70;97.60;;;;;;4979710;28;20182;-92
2022/07/18 07:38:29;;;;;;;3.15;2.65;;;22.80;96.90;;;;;;4994646;28;20180;-92
2022/07/18 07:40:56;;;;;;;4.50;3.13;;;22.90;97.20;;;;;;4978916;28;20205;-92
2022/07/18 07:43:23;;;;;;;5.00;3.00;;;23.00;97.70;;;;;;4979052;28;20251;-91
2022/07/18 07:45:51;;;;;;;6.13;3.00;;;23.10;97.50;;;;;;4978109;28;20215;-92
2022/07/18 07:48:18;;;;;;;2.90;2.70;;;23.20;97.00;;;;;;4979263;28;20214;-92
2022/07/18 07:50:44;;;;;;;2.80;2.60;;;23.40;96.50;;;;;;4979346;28;20195;-92
2022/07/18 07:53:10;;;;;;;3.15;2.72;;;23.60;95.70;;;;;;4978923;28;20346;-92
2022/07/18 07:55:49;;;;;;;4.05;2.50;;;23.70;95.00;;;;;;4978246;28;20176;-92
2022/07/18 07:58:15;;;;;;;2.92;2.60;;;23.80;93.10;;;;;;4986163;28;20281;-92
2022/07/18 08:00:41;;;;;;;4.65;2.42;;;23.80;93.10;;;;;;4982348;28;20199;-91
2022/07/18 08:03:09;;;;;;;2.75;2.50;;;23.90;93.30;;;;;;4978657;28;20180;-91
2022/07/18 08:05:38;;;;;;;2.70;2.42;;;23.90;93.20;;;;;;4976943;28;20242;-91
2022/07/18 08:08:07;;;;;;;2.47;2.28;;;24.10;92.60;;;;;;4993021;28;20265;-91
2022/07/18 08:10:33;;;;;;;3.40;2.60;;;24.20;92.30;;;;;;4992201;28;20194;-91
2022/07/18 08:12:59;;;;;;;3.25;2.70;;;24.30;92.20;;;;;;4980602;28;20270;-92
2022/07/18 08:15:29;;;;;;;4.80;2.55;;;24.30;92.20;;;;;;4980681;28;20211;-91
2022/07/18 08:17:55;;;;;;;3.55;2.97;;;24.50;92.50;;;;;;4982560;28;20191;-92
2022/07/18 08:20:23;;;;;;;2.63;2.20;;;24.50;92.20;;;;;;5001554;28;20171;-91
2022/07/18 08:23:02;;;;;;;3.85;2.53;;;24.60;91.70;;;;;;5003161;28;20195;-91
2022/07/18 08:25:30;;;;;;;4.70;2.42;;;24.80;91.60;;;;;;4984858;28;20183;-94
2022/07/18 08:27:57;;;;;;;2.72;2.20;;;25.00;90.80;;;;;;4980903;28;20294;-90
2022/07/18 08:30:24;;;;;;;3.95;2.28;;;25.20;90.60;;;;;;4981616;28;20183;-92
2022/07/18 08:32:50;;;;;;;2.97;2.67;;;25.40;88.40;;;;;;4981997;28;20183;-92
2022/07/18 08:35:16;;;;;;;4.10;2.58;;;25.60;89.10;;;;;;4981343;28;20194;-91
2022/07/18 08:37:42;;;;;;;3.88;2.20;;;25.80;90.10;;;;;;4980446;28;20206;-92
2022/07/18 08:40:09;;;;;;;2.50;2.30;;;25.90;87.00;;;;;;4997180;28;20245;-92
2022/07/18 08:42:36;;;;;;;3.05;2.05;;;26.20;88.20;;;;;;4996712;28;20214;-91
2022/07/18 08:45:02;;;;;;;3.17;2.50;;;26.50;89.00;;;;;;4996684;28;20187;-91
2022/07/18 08:47:30;;;;;;;5.55;2.00;;;26.80;88.30;;;;;;4996622;28;20218;-91
2022/07/18 08:49:56;;;;;;;2.22;2.03;;;27.00;88.80;;;;;;4996301;28;20279;-91
2022/07/18 08:52:22;;;;;;;4.00;2.17;;;27.30;87.30;;;;;;4996532;28;20210;-91
2022/07/18 08:54:49;;;;;;;2.67;2.10;;;27.50;84.90;;;;;;4996634;28;20183;-92
2022/07/18 08:57:16;;;;;;;2.10;1.90;;;27.60;82.70;;;;;;4996794;28;20187;-92
2022/07/18 08:59:42;;;;;;;2.17;1.98;;;27.80;82.50;;;;;;4996741;28;20678;-91
2022/07/18 09:02:08;;;;;;;2.58;1.95;;;28.10;82.30;;;;;;4996239;28;20203;-91
2022/07/18 09:04:44;;;;;;;3.28;2.00;;;28.30;81.30;;;;;;4995561;28;20183;-91
2022/07/18 09:07:22;;;;;;;3.17;1.90;;;28.50;80.30;;;;;;4996154;28;20215;-91
2022/07/18 09:09:54;;;;;;;4.00;1.90;;;28.50;77.40;;;;;;4996253;28;20182;-91
2022/07/18 09:12:21;;;;;;;2.20;2.00;;;28.40;78.10;;;;;;4996261;28;20199;-91
2022/07/18 09:14:47;;;;;;;2.47;2.00;;;28.60;78.10;;;;;;4995789;28;20179;-91
2022/07/18 09:17:26;;;;;;;2.00;1.90;;;28.90;78.00;;;;;;4995730;28;20193;-91
2022/07/18 09:20:07;;;;;;;2.20;2.00;;;29.10;78.40;;;;;;4995937;28;20183;-91
2022/07/18 09:22:37;;;;;;;4.13;2.25;;;29.30;79.00;;;;;;4995991;28;20253;-91
2022/07/18 09:25:13;;;;;;;2.92;1.88;;;29.50;77.80;;;;;;4995608;28;20186;-91
2022/07/18 09:27:47;;;;;;;2.42;2.20;;;29.60;79.10;;;;;;4995786;28;20206;-91
2022/07/18 09:30:15;;;;;;;2.35;2.05;;;29.60;77.00;;;;;;4996183;28;20179;-91
2022/07/18 09:32:42;;;;;;;2.08;1.90;;;29.80;76.50;;;;;;4995895;28;20207;-91
2022/07/18 09:35:14;;;;;;;4.55;2.03;;;30.00;77.20;;;;;;4995933;28;20206;-91
2022/07/18 09:37:51;;;;;;;2.95;2.03;;;30.10;76.10;;;;;;4995424;28;20195;-91
2022/07/18 09:40:29;;;;;;;3.17;1.90;;;30.10;75.50;;;;;;4995580;28;20187;-91
2022/07/18 09:43:00;;;;;;;2.85;2.05;;;30.30;75.70;;;;;;4995694;28;20663;-91
2022/07/18 09:45:32;;;;;;;5.07;2.22;;;30.10;73.20;;;;;;4995503;28;20194;-91
2022/07/18 09:48:04;;;;;;;3.30;1.90;;;30.30;73.50;;;;;;4995776;28;20233;-91
2022/07/18 09:50:34;;;;;;;3.35;2.03;;;30.50;72.20;;;;;;4995278;28;20195;-91
2022/07/18 09:53:03;;;;;;;2.30;2.08;;;30.80;70.90;;;;;;4995512;28;20210;-91
2022/07/18 09:55:29;;;;;;;4.15;2.08;;;30.80;73.30;;;;;;4994908;28;20172;-91
2022/07/18 09:58:07;;;;;;;2.10;1.90;;;31.00;71.10;;;;;;4996682;28;20183;-91
2022/07/18 10:00:36;;;;;;;2.13;1.80;;;31.20;71.60;;;;;;4994371;28;20207;-90
2022/07/18 10:03:08;;;;;;;2.00;1.90;;;31.20;70.10;;;;;;4995108;28;20246;-91
2022/07/18 10:05:39;;;;;;;2.28;2.10;;;31.30;66.90;;;;;;4978618;28;20203;-91
2022/07/18 10:08:21;;;;;;;2.58;1.98;;;31.40;67.30;;;;;;4976702;28;20230;-91
2022/07/18 10:10:50;;;;;;;2.25;2.05;;;31.60;68.10;;;;;;4976081;28;20202;-91
2022/07/18 10:13:17;;;;;;;2.85;2.00;;;31.80;68.10;;;;;;4994494;28;20202;-91
2022/07/18 10:15:53;;;;;;;2.78;2.15;;;32.00;68.20;;;;;;4995528;28;20175;-91
2022/07/18 10:18:25;;;;;;;2.10;1.90;;;31.90;69.00;;;;;;4996664;28;20181;-91
2022/07/18 10:21:08;;;;;;;2.15;1.95;;;32.10;67.50;;;;;;4996701;28;20202;-90
2022/07/18 10:23:37;;;;;;;4.15;2.28;;;31.80;66.90;;;;;;4978877;28;20194;-91
2022/07/18 10:26:14;;;;;;;2.42;2.10;;;31.60;66.60;;;;;;4980756;28;20250;-91
2022/07/18 10:28:55;;;;;;;2.17;2.03;;;31.60;67.30;;;;;;4979724;28;20394;-91
2022/07/18 10:31:32;;;;;;;3.58;1.90;;;31.80;65.70;;;;;;4979038;28;20199;-91
2022/07/18 10:34:08;;;;;;;2.05;1.95;;;31.90;66.80;;;;;;4977388;28;20190;-91
2022/07/18 10:36:53;;;;;;;2.20;2.10;;;31.70;65.20;;;;;;4978002;28;20179;-88
2022/07/18 10:39:20;;;;;;;2.30;2.10;;;31.80;67.60;;;;;;4977889;28;20206;-91
2022/07/18 10:41:46;;;;;;;2.30;1.85;;;32.00;68.80;;;;;;4994801;28;20219;-89
2022/07/18 10:44:24;;;;;;;2.50;2.13;;;32.40;68.20;;;;;;4979631;28;20243;-91
2022/07/18 10:47:03;;;;;;;2.35;2.15;;;32.60;64.50;;;;;;4980024;28;20249;-91
2022/07/18 10:49:52;;;;;;;2.15;1.90;;;32.80;66.00;;;;;;4980273;28;20651;-92
2022/07/18 10:52:25;;;;;;;2.78;2.10;;;32.90;64.90;;;;;;4980188;28;20282;-92
2022/07/18 10:55:03;;;;;;;2.08;1.90;;;33.00;64.50;;;;;;4979975;28;20187;-90
2022/07/18 10:57:30;;;;;;;3.95;2.40;;;32.80;64.50;;;;;;4980117;28;20210;-92
2022/07/18 11:00:04;;;;;;;2.72;1.95;;;33.00;64.30;;;;;;4996822;28;20187;-92
2022/07/18 11:02:36;;;;;;;2.22;1.75;;;33.20;64.00;;;;;;4996557;28;20198;-92
2022/07/18 11:05:03;;;;;;;2.33;2.05;;;33.20;62.80;;;;;;4980139;28;20187;-92
2022/07/18 11:07:29;;;;;;;5.50;2.20;;;33.30;61.70;;;;;;4977917;28;20203;-91
2022/07/18 11:09:56;;;;;;;2.10;1.90;;;33.40;63.70;;;;;;4971017;28;20171;-91
2022/07/18 11:12:25;;;;;;;3.15;1.88;;;33.10;62.80;;;;;;4967805;28;20211;-92
2022/07/18 11:15:13;;;;;;;3.20;1.85;;;33.20;63.30;;;;;;4983886;28;20180;-91
2022/07/18 11:17:55;;;;;;;2.38;2.05;;;33.10;63.70;;;;;;4988475;28;20264;-92
2022/07/18 11:20:38;;;;;;;2.65;1.90;;;33.10;61.80;;;;;;4971245;28;20207;-92
2022/07/18 11:23:19;;;;;;;5.07;2.00;;;33.00;61.60;;;;;;4967408;28;20182;-91
2022/07/18 11:25:47;;;;;;;2.63;1.90;;;33.10;60.80;;;;;;4989882;28;20187;-92
2022/07/18 11:28:15;;;;;;;3.28;2.05;;;32.90;61.50;;;;;;4999150;28;20211;-92
2022/07/18 11:30:42;;;;;;;2.25;2.10;;;32.80;61.50;;;;;;4987056;28;20252;-92
2022/07/18 11:33:25;;;;;;;3.30;1.65;;;32.80;61.30;;;;;;4996731;28;20620;-91
2022/07/18 11:36:19;;;;;;;2.47;1.67;;;32.90;61.20;;;;;;4967994;28;20180;-93
2022/07/18 11:38:56;;;;;;;2.05;1.90;;;33.00;61.00;;;;;;4959870;28;20187;-93
2022/07/18 11:41:23;;;;;;;1.75;1.65;;;33.30;63.40;;;;;;4998483;28;20203;-92
2022/07/18 11:43:52;;;;;;;3.33;2.28;;;33.30;62.60;;;;;;4983383;28;20186;-92
2022/07/18 11:46:25;;;;;;;1.88;1.70;;;33.70;59.90;;;;;;4996967;28;20187;-93
2022/07/18 11:49:00;;;;;;;1.83;1.73;;;33.50;58.40;;;;;;5018423;28;20256;-90
2022/07/18 11:51:41;;;;;;;9.68;1.95;;;33.50;59.80;;;;;;4996074;28;20238;-91
2022/07/18 11:54:08;;;;;;;2.95;1.80;;;33.50;60.00;;;;;;5001643;28;20179;-91
2022/07/18 11:56:49;;;;;;;2.05;1.85;;;33.80;59.60;;;;;;4983652;28;20187;-91
2022/07/18 11:59:17;;;;;;;2.30;2.08;;;34.30;59.30;;;;;;4983922;28;20186;-91
2022/07/18 12:01:52;;;;;;;2.42;2.03;;;34.40;59.60;;;;;;4999468;28;20199;-89
2022/07/18 12:04:22;;;;;;;1.55;1.45;;;34.30;58.60;;;;;;4976568;28;20190;-91
2022/07/18 12:07:14;;;;;;;2.22;1.63;;;34.40;59.10;;;;;;4981913;28;20334;-93
2022/07/18 12:09:42;;;;;;;2.22;1.80;;;34.70;57.60;;;;;;4998707;28;20225;-93
2022/07/18 12:12:13;;;;;;;1.95;1.83;;;34.80;58.20;;;;;;4980644;28;20294;-92
2022/07/18 12:14:42;;;;;;;1.95;1.70;;;34.40;57.50;;;;;;4994212;28;20182;-93
2022/07/18 12:17:08;;;;;;;2.70;1.80;;;34.60;58.70;;;;;;4978989;28;20183;-93
2022/07/18 12:19:39;;;;;;;2.08;1.88;;;34.90;59.90;;;;;;4980978;28;20190;-92
2022/07/18 12:22:12;;;;;;;2.60;1.67;;;35.20;58.30;;;;;;4998188;28;20241;-92
2022/07/18 12:24:50;;;;;;;2.05;1.90;;;35.50;58.20;;;;;;4979909;28;20249;-90
2022/07/18 12:27:22;;;;;;;2.00;1.70;;;35.70;57.90;;;;;;4983356;28;20202;-91
2022/07/18 12:30:06;;;;;;;1.70;1.60;;;35.30;56.40;;;;;;4995401;28;20188;-90
2022/07/18 12:32:45;;;;;;;3.47;1.73;;;35.50;57.80;;;;;;4993451;28;20245;-91
2022/07/18 12:35:13;;;;;;;3.28;1.75;;;35.60;58.80;;;;;;4980095;28;20303;-91
2022/07/18 12:37:40;;;;;;;3.78;1.90;;;35.70;57.60;;;;;;4996245;28;20274;-90
2022/07/18 12:40:11;;;;;;;3.35;2.00;;;35.70;56.80;;;;;;4996279;28;20274;-90
2022/07/18 12:42:42;;;;;;;2.10;1.88;;;35.80;56.70;;;;;;4996025;28;20218;-91
2022/07/18 12:45:10;;;;;;;3.40;1.95;;;35.90;56.90;;;;;;4998223;28;20194;-90
2022/07/18 12:47:36;;;;;;;2.35;1.60;;;35.70;57.00;;;;;;4984813;28;20211;-91
2022/07/18 12:50:05;;;;;;;3.17;1.58;;;35.70;56.40;;;;;;4996130;28;20175;-91
2022/07/18 12:52:31;;;;;;;1.60;1.50;;;35.80;56.20;;;;;;5004714;28;20211;-91
2022/07/18 12:54:57;;;;;;;1.65;1.50;;;36.00;57.40;;;;;;4989965;28;20214;-91
2022/07/18 12:57:23;;;;;;;2.05;1.77;;;36.10;57.30;;;;;;5000249;28;20183;-91
2022/07/18 12:59:49;;;;;;;2.55;1.75;;;36.20;57.10;;;;;;4995864;28;20186;-90